sensor_id;sensor_type;location;lat;lon;timestamp;P1;durP1;ratioP1;P2;durP2;ratioP2
6101;SDS011;3081;50.584;7.032;2023-11-19T00:02:25;1.00;;;0.30;;
6101;SDS011;3081;50.584;7.032;2023-11-19T00:04:52;1.00;;;0.40;;
6101;SDS011;3081;50.584;7.032;2023-11-19T00:07:19;1.20;;;0.40;;
6101;SDS011;3081;50.584;7.032;2023-11-19T00:09:46;1.00;;;0.40;;
6101;SDS011;3081;50.584;7.032;2023-11-19T00:12:13;1.00;;;0.30;;
6101;SDS011;3081;50.584;7.032;2023-11-19T00:14:41;1.10;;;0.50;;
6101;SDS011;3081;50.584;7.032;2023-11-19T00:17:09;1.00;;;0.30;;
6101;SDS011;3081;50.584;7.032;2023-11-19T00:19:36;1.10;;;0.40;;
6101;SDS011;3081;50.584;7.032;2023-11-19T00:22:03;1.00;;;0.30;;
6101;SDS011;3081;50.584;7.032;2023-11-19T00:24:30;1.00;;;0.40;;
6101;SDS011;3081;50.584;7.032;2023-11-19T00:26:56;1.00;;;0.40;;
6101;SDS011;3081;50.584;7.032;2023-11-19T00:29:23;1.00;;;0.40;;
6101;SDS011;3081;50.584;7.032;2023-11-19T00:31:52;1.00;;;0.50;;
6101;SDS011;3081;50.584;7.032;2023-11-19T00:34:19;1.00;;;0.47;;
6101;SDS011;3081;50.584;7.032;2023-11-19T00:36:47;1.00;;;0.50;;
6101;SDS011;3081;50.584;7.032;2023-11-19T00:39:14;1.00;;;0.50;;
6101;SDS011;3081;50.584;7.032;2023-11-19T00:41:42;1.10;;;0.50;;
6101;SDS011;3081;50.584;7.032;2023-11-19T00:44:11;1.30;;;0.80;;
6101;SDS011;3081;50.584;7.032;2023-11-19T00:46:38;1.53;;;0.90;;
6101;SDS011;3081;50.584;7.032;2023-11-19T00:49:06;1.20;;;0.60;;
6101;SDS011;3081;50.584;7.032;2023-11-19T00:51:33;1.60;;;0.90;;
6101;SDS011;3081;50.584;7.032;2023-11-19T00:54:00;1.00;;;0.40;;
6101;SDS011;3081;50.584;7.032;2023-11-19T00:56:27;1.00;;;0.40;;
6101;SDS011;3081;50.584;7.032;2023-11-19T00:58:54;4.03;;;0.50;;
6101;SDS011;3081;50.584;7.032;2023-11-19T01:01:22;2.20;;;0.40;;
6101;SDS011;3081;50.584;7.032;2023-11-19T01:03:49;0.90;;;0.30;;
6101;SDS011;3081;50.584;7.032;2023-11-19T01:06:27;1.00;;;0.40;;
6101;SDS011;3081;50.584;7.032;2023-11-19T01:08:54;2.03;;;0.40;;
6101;SDS011;3081;50.584;7.032;2023-11-19T01:11:21;1.00;;;0.40;;
6101;SDS011;3081;50.584;7.032;2023-11-19T01:13:49;0.90;;;0.40;;
6101;SDS011;3081;50.584;7.032;2023-11-19T01:16:16;1.00;;;0.47;;
6101;SDS011;3081;50.584;7.032;2023-11-19T01:18:44;1.00;;;0.50;;
6101;SDS011;3081;50.584;7.032;2023-11-19T01:21:12;1.00;;;0.50;;
6101;SDS011;3081;50.584;7.032;2023-11-19T01:23:42;1.23;;;0.60;;
6101;SDS011;3081;50.584;7.032;2023-11-19T01:26:09;1.10;;;0.53;;
6101;SDS011;3081;50.584;7.032;2023-11-19T01:28:37;1.40;;;0.70;;
6101;SDS011;3081;50.584;7.032;2023-11-19T01:31:08;2.33;;;1.10;;
6101;SDS011;3081;50.584;7.032;2023-11-19T01:33:35;1.30;;;0.70;;
6101;SDS011;3081;50.584;7.032;2023-11-19T01:36:02;1.50;;;0.90;;
6101;SDS011;3081;50.584;7.032;2023-11-19T01:38:30;7.23;;;1.00;;
6101;SDS011;3081;50.584;7.032;2023-11-19T01:40:58;1.63;;;0.83;;
6101;SDS011;3081;50.584;7.032;2023-11-19T01:43:32;1.70;;;0.90;;
6101;SDS011;3081;50.584;7.032;2023-11-19T01:45:58;2.20;;;1.00;;
6101;SDS011;3081;50.584;7.032;2023-11-19T01:48:25;2.47;;;1.10;;
6101;SDS011;3081;50.584;7.032;2023-11-19T01:50:53;1.27;;;0.50;;
6101;SDS011;3081;50.584;7.032;2023-11-19T01:53:20;1.00;;;0.50;;
6101;SDS011;3081;50.584;7.032;2023-11-19T01:55:47;0.90;;;0.40;;
6101;SDS011;3081;50.584;7.032;2023-11-19T01:58:16;0.90;;;0.30;;
6101;SDS011;3081;50.584;7.032;2023-11-19T02:00:44;0.90;;;0.40;;
6101;SDS011;3081;50.584;7.032;2023-11-19T02:03:11;1.00;;;0.40;;
6101;SDS011;3081;50.584;7.032;2023-11-19T02:05:39;0.90;;;0.37;;
6101;SDS011;3081;50.584;7.032;2023-11-19T02:08:07;0.90;;;0.37;;
6101;SDS011;3081;50.584;7.032;2023-11-19T02:10:34;1.00;;;0.50;;
6101;SDS011;3081;50.584;7.032;2023-11-19T02:13:01;0.93;;;0.40;;
6101;SDS011;3081;50.584;7.032;2023-11-19T02:15:31;1.00;;;0.43;;
6101;SDS011;3081;50.584;7.032;2023-11-19T02:20:44;1.30;;;0.63;;
6101;SDS011;3081;50.584;7.032;2023-11-19T02:23:11;1.20;;;0.60;;
6101;SDS011;3081;50.584;7.032;2023-11-19T02:25:38;1.93;;;0.83;;
6101;SDS011;3081;50.584;7.032;2023-11-19T02:28:07;3.20;;;0.90;;
6101;SDS011;3081;50.584;7.032;2023-11-19T02:30:37;1.77;;;0.70;;
6101;SDS011;3081;50.584;7.032;2023-11-19T02:33:04;3.07;;;1.37;;
6101;SDS011;3081;50.584;7.032;2023-11-19T02:35:31;1.70;;;0.70;;
6101;SDS011;3081;50.584;7.032;2023-11-19T02:37:59;2.30;;;0.90;;
6101;SDS011;3081;50.584;7.032;2023-11-19T02:40:28;1.70;;;0.70;;
6101;SDS011;3081;50.584;7.032;2023-11-19T02:42:55;1.10;;;0.70;;
6101;SDS011;3081;50.584;7.032;2023-11-19T02:45:24;1.17;;;0.60;;
6101;SDS011;3081;50.584;7.032;2023-11-19T02:47:52;1.13;;;0.60;;
6101;SDS011;3081;50.584;7.032;2023-11-19T02:50:20;1.97;;;0.77;;
6101;SDS011;3081;50.584;7.032;2023-11-19T02:52:50;2.70;;;1.23;;
6101;SDS011;3081;50.584;7.032;2023-11-19T02:55:18;1.73;;;0.80;;
6101;SDS011;3081;50.584;7.032;2023-11-19T02:57:46;4.83;;;2.30;;
6101;SDS011;3081;50.584;7.032;2023-11-19T03:00:14;2.93;;;1.10;;
6101;SDS011;3081;50.584;7.032;2023-11-19T03:02:43;1.83;;;0.77;;
6101;SDS011;3081;50.584;7.032;2023-11-19T03:05:12;4.07;;;1.50;;
6101;SDS011;3081;50.584;7.032;2023-11-19T03:07:40;3.47;;;1.00;;
6101;SDS011;3081;50.584;7.032;2023-11-19T03:10:09;3.10;;;1.10;;
6101;SDS011;3081;50.584;7.032;2023-11-19T03:12:38;1.57;;;0.60;;
6101;SDS011;3081;50.584;7.032;2023-11-19T03:15:05;2.20;;;0.60;;
6101;SDS011;3081;50.584;7.032;2023-11-19T03:17:34;0.90;;;0.40;;
6101;SDS011;3081;50.584;7.032;2023-11-19T03:20:04;1.13;;;0.50;;
6101;SDS011;3081;50.584;7.032;2023-11-19T03:22:34;0.93;;;0.40;;
6101;SDS011;3081;50.584;7.032;2023-11-19T03:25:03;1.83;;;0.60;;
6101;SDS011;3081;50.584;7.032;2023-11-19T03:27:33;0.97;;;0.40;;
6101;SDS011;3081;50.584;7.032;2023-11-19T03:30:01;1.00;;;0.50;;
6101;SDS011;3081;50.584;7.032;2023-11-19T03:32:29;1.10;;;0.50;;
6101;SDS011;3081;50.584;7.032;2023-11-19T03:34:56;1.30;;;0.50;;
6101;SDS011;3081;50.584;7.032;2023-11-19T03:37:25;1.20;;;0.70;;
6101;SDS011;3081;50.584;7.032;2023-11-19T03:39:53;1.70;;;0.90;;
6101;SDS011;3081;50.584;7.032;2023-11-19T03:42:24;1.40;;;0.67;;
6101;SDS011;3081;50.584;7.032;2023-11-19T03:44:51;1.57;;;0.87;;
6101;SDS011;3081;50.584;7.032;2023-11-19T03:47:19;2.50;;;0.90;;
6101;SDS011;3081;50.584;7.032;2023-11-19T03:49:47;2.40;;;0.90;;
6101;SDS011;3081;50.584;7.032;2023-11-19T03:52:14;3.80;;;0.90;;
6101;SDS011;3081;50.584;7.032;2023-11-19T03:54:43;3.13;;;1.50;;
6101;SDS011;3081;50.584;7.032;2023-11-19T03:57:10;2.80;;;1.13;;
6101;SDS011;3081;50.584;7.032;2023-11-19T03:59:38;7.60;;;1.67;;
6101;SDS011;3081;50.584;7.032;2023-11-19T04:02:05;2.10;;;0.80;;
6101;SDS011;3081;50.584;7.032;2023-11-19T04:04:32;3.40;;;1.37;;
6101;SDS011;3081;50.584;7.032;2023-11-19T04:07:00;5.70;;;2.40;;
6101;SDS011;3081;50.584;7.032;2023-11-19T04:09:28;1.50;;;0.80;;
6101;SDS011;3081;50.584;7.032;2023-11-19T04:11:56;1.00;;;0.40;;
6101;SDS011;3081;50.584;7.032;2023-11-19T04:14:23;1.37;;;0.40;;
6101;SDS011;3081;50.584;7.032;2023-11-19T04:16:50;1.87;;;0.93;;
6101;SDS011;3081;50.584;7.032;2023-11-19T04:19:17;3.93;;;0.80;;
6101;SDS011;3081;50.584;7.032;2023-11-19T04:21:44;1.87;;;0.70;;
6101;SDS011;3081;50.584;7.032;2023-11-19T04:24:11;2.57;;;0.50;;
6101;SDS011;3081;50.584;7.032;2023-11-19T04:26:40;1.33;;;0.50;;
6101;SDS011;3081;50.584;7.032;2023-11-19T04:29:09;4.20;;;0.93;;
6101;SDS011;3081;50.584;7.032;2023-11-19T04:31:37;3.57;;;1.40;;
6101;SDS011;3081;50.584;7.032;2023-11-19T04:34:04;3.50;;;0.90;;
6101;SDS011;3081;50.584;7.032;2023-11-19T04:36:31;1.13;;;0.40;;
6101;SDS011;3081;50.584;7.032;2023-11-19T04:38:59;2.13;;;0.63;;
6101;SDS011;3081;50.584;7.032;2023-11-19T04:41:26;2.90;;;1.00;;
6101;SDS011;3081;50.584;7.032;2023-11-19T04:43:53;3.10;;;1.00;;
6101;SDS011;3081;50.584;7.032;2023-11-19T04:46:22;1.70;;;0.80;;
6101;SDS011;3081;50.584;7.032;2023-11-19T04:48:49;1.97;;;0.60;;
6101;SDS011;3081;50.584;7.032;2023-11-19T04:51:16;4.00;;;1.17;;
6101;SDS011;3081;50.584;7.032;2023-11-19T04:53:43;3.10;;;0.70;;
6101;SDS011;3081;50.584;7.032;2023-11-19T04:56:10;3.83;;;1.47;;
6101;SDS011;3081;50.584;7.032;2023-11-19T04:58:38;1.97;;;0.80;;
6101;SDS011;3081;50.584;7.032;2023-11-19T05:01:05;2.17;;;0.90;;
6101;SDS011;3081;50.584;7.032;2023-11-19T05:03:33;4.03;;;0.67;;
6101;SDS011;3081;50.584;7.032;2023-11-19T05:06:01;2.27;;;0.90;;
6101;SDS011;3081;50.584;7.032;2023-11-19T05:08:28;2.87;;;0.90;;
6101;SDS011;3081;50.584;7.032;2023-11-19T05:10:55;5.10;;;0.90;;
6101;SDS011;3081;50.584;7.032;2023-11-19T05:13:22;3.30;;;0.93;;
6101;SDS011;3081;50.584;7.032;2023-11-19T05:15:49;2.80;;;0.77;;
6101;SDS011;3081;50.584;7.032;2023-11-19T05:18:16;3.50;;;1.00;;
6101;SDS011;3081;50.584;7.032;2023-11-19T05:20:45;3.47;;;0.60;;
6101;SDS011;3081;50.584;7.032;2023-11-19T05:23:12;3.30;;;1.00;;
6101;SDS011;3081;50.584;7.032;2023-11-19T05:25:39;1.40;;;0.50;;
6101;SDS011;3081;50.584;7.032;2023-11-19T05:28:06;4.43;;;1.33;;
6101;SDS011;3081;50.584;7.032;2023-11-19T05:30:33;8.63;;;1.23;;
6101;SDS011;3081;50.584;7.032;2023-11-19T05:33:00;2.23;;;0.83;;
6101;SDS011;3081;50.584;7.032;2023-11-19T05:35:27;3.10;;;1.00;;
6101;SDS011;3081;50.584;7.032;2023-11-19T05:37:55;2.43;;;0.70;;
6101;SDS011;3081;50.584;7.032;2023-11-19T05:40:22;3.40;;;1.27;;
6101;SDS011;3081;50.584;7.032;2023-11-19T05:42:49;11.90;;;1.00;;
6101;SDS011;3081;50.584;7.032;2023-11-19T05:45:16;6.63;;;1.03;;
6101;SDS011;3081;50.584;7.032;2023-11-19T05:47:42;7.73;;;1.10;;
6101;SDS011;3081;50.584;7.032;2023-11-19T05:50:10;1.40;;;0.40;;
6101;SDS011;3081;50.584;7.032;2023-11-19T05:52:37;5.20;;;1.20;;
6101;SDS011;3081;50.584;7.032;2023-11-19T05:55:05;2.03;;;0.63;;
6101;SDS011;3081;50.584;7.032;2023-11-19T05:57:35;6.60;;;0.67;;
6101;SDS011;3081;50.584;7.032;2023-11-19T06:00:02;3.53;;;0.60;;
6101;SDS011;3081;50.584;7.032;2023-11-19T06:02:32;1.60;;;0.50;;
6101;SDS011;3081;50.584;7.032;2023-11-19T06:04:59;6.40;;;1.00;;
6101;SDS011;3081;50.584;7.032;2023-11-19T06:07:26;7.83;;;1.07;;
6101;SDS011;3081;50.584;7.032;2023-11-19T06:09:53;1.77;;;0.60;;
6101;SDS011;3081;50.584;7.032;2023-11-19T06:12:21;8.90;;;1.20;;
6101;SDS011;3081;50.584;7.032;2023-11-19T06:14:48;5.53;;;1.33;;
6101;SDS011;3081;50.584;7.032;2023-11-19T06:17:15;3.77;;;1.47;;
6101;SDS011;3081;50.584;7.032;2023-11-19T06:19:42;5.73;;;1.30;;
6101;SDS011;3081;50.584;7.032;2023-11-19T06:22:10;4.57;;;1.10;;
6101;SDS011;3081;50.584;7.032;2023-11-19T06:24:37;4.63;;;1.30;;
6101;SDS011;3081;50.584;7.032;2023-11-19T06:27:04;2.27;;;1.03;;
6101;SDS011;3081;50.584;7.032;2023-11-19T06:29:32;6.23;;;1.60;;
6101;SDS011;3081;50.584;7.032;2023-11-19T06:31:59;7.30;;;2.00;;
6101;SDS011;3081;50.584;7.032;2023-11-19T06:34:26;7.70;;;1.30;;
6101;SDS011;3081;50.584;7.032;2023-11-19T06:36:53;3.60;;;0.90;;
6101;SDS011;3081;50.584;7.032;2023-11-19T06:39:20;5.70;;;1.30;;
6101;SDS011;3081;50.584;7.032;2023-11-19T06:41:47;8.20;;;1.20;;
6101;SDS011;3081;50.584;7.032;2023-11-19T06:44:14;5.33;;;1.50;;
6101;SDS011;3081;50.584;7.032;2023-11-19T06:46:42;6.03;;;1.23;;
6101;SDS011;3081;50.584;7.032;2023-11-19T06:49:09;5.30;;;0.90;;
6101;SDS011;3081;50.584;7.032;2023-11-19T06:51:40;7.20;;;1.70;;
6101;SDS011;3081;50.584;7.032;2023-11-19T06:54:07;3.13;;;1.10;;
6101;SDS011;3081;50.584;7.032;2023-11-19T06:56:34;14.97;;;1.80;;
6101;SDS011;3081;50.584;7.032;2023-11-19T06:59:02;8.20;;;1.57;;
6101;SDS011;3081;50.584;7.032;2023-11-19T07:01:33;2.53;;;1.07;;
6101;SDS011;3081;50.584;7.032;2023-11-19T07:04:02;10.70;;;1.40;;
6101;SDS011;3081;50.584;7.032;2023-11-19T07:06:34;2.67;;;0.90;;
6101;SDS011;3081;50.584;7.032;2023-11-19T07:09:01;3.33;;;0.70;;
6101;SDS011;3081;50.584;7.032;2023-11-19T07:11:35;8.33;;;0.97;;
6101;SDS011;3081;50.584;7.032;2023-11-19T07:14:04;8.73;;;1.67;;
6101;SDS011;3081;50.584;7.032;2023-11-19T07:16:31;3.27;;;0.97;;
6101;SDS011;3081;50.584;7.032;2023-11-19T07:18:59;4.97;;;1.10;;
6101;SDS011;3081;50.584;7.032;2023-11-19T07:21:27;3.83;;;0.80;;
6101;SDS011;3081;50.584;7.032;2023-11-19T07:23:55;7.93;;;1.13;;
6101;SDS011;3081;50.584;7.032;2023-11-19T07:26:22;8.27;;;1.53;;
6101;SDS011;3081;50.584;7.032;2023-11-19T07:28:49;5.43;;;0.87;;
6101;SDS011;3081;50.584;7.032;2023-11-19T07:31:17;6.07;;;1.50;;
6101;SDS011;3081;50.584;7.032;2023-11-19T07:33:45;7.53;;;1.33;;
6101;SDS011;3081;50.584;7.032;2023-11-19T07:36:13;6.20;;;1.20;;
6101;SDS011;3081;50.584;7.032;2023-11-19T07:38:42;5.33;;;1.23;;
6101;SDS011;3081;50.584;7.032;2023-11-19T07:41:09;3.40;;;0.60;;
6101;SDS011;3081;50.584;7.032;2023-11-19T07:43:38;6.60;;;1.43;;
6101;SDS011;3081;50.584;7.032;2023-11-19T07:46:10;3.07;;;1.13;;
6101;SDS011;3081;50.584;7.032;2023-11-19T07:48:38;6.17;;;1.53;;
6101;SDS011;3081;50.584;7.032;2023-11-19T07:51:04;3.20;;;0.90;;
6101;SDS011;3081;50.584;7.032;2023-11-19T07:53:32;7.13;;;0.60;;
6101;SDS011;3081;50.584;7.032;2023-11-19T07:56:01;5.53;;;0.80;;
6101;SDS011;3081;50.584;7.032;2023-11-19T07:58:28;7.30;;;1.10;;
6101;SDS011;3081;50.584;7.032;2023-11-19T08:00:56;5.70;;;1.00;;
6101;SDS011;3081;50.584;7.032;2023-11-19T08:03:23;5.40;;;0.77;;
6101;SDS011;3081;50.584;7.032;2023-11-19T08:05:50;5.20;;;1.23;;
6101;SDS011;3081;50.584;7.032;2023-11-19T08:08:18;7.70;;;0.97;;
6101;SDS011;3081;50.584;7.032;2023-11-19T08:10:46;7.70;;;1.27;;
6101;SDS011;3081;50.584;7.032;2023-11-19T08:13:15;16.40;;;2.77;;
6101;SDS011;3081;50.584;7.032;2023-11-19T08:15:43;10.17;;;1.00;;
6101;SDS011;3081;50.584;7.032;2023-11-19T08:18:11;12.07;;;1.50;;
6101;SDS011;3081;50.584;7.032;2023-11-19T08:20:38;10.57;;;1.70;;
6101;SDS011;3081;50.584;7.032;2023-11-19T08:23:06;15.60;;;1.90;;
6101;SDS011;3081;50.584;7.032;2023-11-19T08:25:33;9.10;;;1.57;;
6101;SDS011;3081;50.584;7.032;2023-11-19T08:28:00;8.57;;;1.20;;
6101;SDS011;3081;50.584;7.032;2023-11-19T08:30:30;8.93;;;1.37;;
6101;SDS011;3081;50.584;7.032;2023-11-19T08:32:57;12.13;;;1.60;;
6101;SDS011;3081;50.584;7.032;2023-11-19T08:35:27;7.73;;;1.23;;
6101;SDS011;3081;50.584;7.032;2023-11-19T08:37:55;9.47;;;1.50;;
6101;SDS011;3081;50.584;7.032;2023-11-19T08:40:25;10.20;;;1.57;;
6101;SDS011;3081;50.584;7.032;2023-11-19T08:42:52;10.07;;;2.23;;
6101;SDS011;3081;50.584;7.032;2023-11-19T08:45:21;8.90;;;0.70;;
6101;SDS011;3081;50.584;7.032;2023-11-19T08:47:49;12.37;;;2.13;;
6101;SDS011;3081;50.584;7.032;2023-11-19T08:50:16;7.13;;;0.60;;
6101;SDS011;3081;50.584;7.032;2023-11-19T08:52:43;8.03;;;1.20;;
6101;SDS011;3081;50.584;7.032;2023-11-19T08:55:10;5.10;;;0.90;;
6101;SDS011;3081;50.584;7.032;2023-11-19T08:57:38;7.57;;;1.47;;
6101;SDS011;3081;50.584;7.032;2023-11-19T09:00:06;11.60;;;1.63;;
6101;SDS011;3081;50.584;7.032;2023-11-19T09:02:33;7.17;;;1.90;;
6101;SDS011;3081;50.584;7.032;2023-11-19T09:05:03;10.37;;;1.70;;
6101;SDS011;3081;50.584;7.032;2023-11-19T09:07:32;9.67;;;1.27;;
6101;SDS011;3081;50.584;7.032;2023-11-19T09:09:59;17.40;;;2.77;;
6101;SDS011;3081;50.584;7.032;2023-11-19T09:12:26;13.97;;;1.83;;
6101;SDS011;3081;50.584;7.032;2023-11-19T09:14:53;9.93;;;1.73;;
6101;SDS011;3081;50.584;7.032;2023-11-19T09:17:20;14.80;;;5.23;;
6101;SDS011;3081;50.584;7.032;2023-11-19T09:19:47;12.70;;;2.87;;
6101;SDS011;3081;50.584;7.032;2023-11-19T09:22:15;5.70;;;1.10;;
6101;SDS011;3081;50.584;7.032;2023-11-19T09:24:42;25.87;;;3.03;;
6101;SDS011;3081;50.584;7.032;2023-11-19T09:27:09;14.70;;;1.63;;
6101;SDS011;3081;50.584;7.032;2023-11-19T09:29:36;7.77;;;1.20;;
6101;SDS011;3081;50.584;7.032;2023-11-19T09:32:04;9.20;;;2.33;;
6101;SDS011;3081;50.584;7.032;2023-11-19T09:34:32;7.30;;;1.47;;
6101;SDS011;3081;50.584;7.032;2023-11-19T09:36:59;6.67;;;1.33;;
6101;SDS011;3081;50.584;7.032;2023-11-19T09:39:28;4.90;;;0.77;;
6101;SDS011;3081;50.584;7.032;2023-11-19T09:41:55;8.60;;;1.47;;
6101;SDS011;3081;50.584;7.032;2023-11-19T09:44:22;9.83;;;1.70;;
6101;SDS011;3081;50.584;7.032;2023-11-19T09:46:50;14.37;;;1.67;;
6101;SDS011;3081;50.584;7.032;2023-11-19T09:49:19;8.30;;;1.37;;
6101;SDS011;3081;50.584;7.032;2023-11-19T09:51:48;7.80;;;1.30;;
6101;SDS011;3081;50.584;7.032;2023-11-19T09:54:16;16.60;;;1.27;;
6101;SDS011;3081;50.584;7.032;2023-11-19T09:56:44;8.73;;;1.43;;
6101;SDS011;3081;50.584;7.032;2023-11-19T09:59:12;9.60;;;0.97;;
6101;SDS011;3081;50.584;7.032;2023-11-19T10:01:39;14.27;;;1.20;;
6101;SDS011;3081;50.584;7.032;2023-11-19T10:04:06;11.40;;;1.87;;
6101;SDS011;3081;50.584;7.032;2023-11-19T10:06:33;13.50;;;2.07;;
6101;SDS011;3081;50.584;7.032;2023-11-19T10:09:00;17.53;;;2.03;;
6101;SDS011;3081;50.584;7.032;2023-11-19T10:11:29;10.00;;;1.73;;
6101;SDS011;3081;50.584;7.032;2023-11-19T10:13:58;19.87;;;1.70;;
6101;SDS011;3081;50.584;7.032;2023-11-19T10:16:28;7.23;;;1.07;;
6101;SDS011;3081;50.584;7.032;2023-11-19T10:18:56;8.73;;;1.57;;
6101;SDS011;3081;50.584;7.032;2023-11-19T10:21:23;8.40;;;1.77;;
6101;SDS011;3081;50.584;7.032;2023-11-19T10:23:53;11.53;;;1.00;;
6101;SDS011;3081;50.584;7.032;2023-11-19T10:26:22;12.90;;;1.90;;
6101;SDS011;3081;50.584;7.032;2023-11-19T10:28:49;11.27;;;1.30;;
6101;SDS011;3081;50.584;7.032;2023-11-19T10:31:19;10.60;;;1.57;;
6101;SDS011;3081;50.584;7.032;2023-11-19T10:33:50;5.10;;;0.70;;
6101;SDS011;3081;50.584;7.032;2023-11-19T10:36:17;8.17;;;1.47;;
6101;SDS011;3081;50.584;7.032;2023-11-19T10:38:51;8.53;;;1.53;;
6101;SDS011;3081;50.584;7.032;2023-11-19T10:41:28;19.83;;;2.30;;
6101;SDS011;3081;50.584;7.032;2023-11-19T10:43:56;7.40;;;1.90;;
6101;SDS011;3081;50.584;7.032;2023-11-19T10:46:35;10.53;;;1.20;;
6101;SDS011;3081;50.584;7.032;2023-11-19T10:49:03;7.33;;;1.10;;
6101;SDS011;3081;50.584;7.032;2023-11-19T10:51:31;8.80;;;1.60;;
6101;SDS011;3081;50.584;7.032;2023-11-19T10:54:00;7.67;;;1.67;;
6101;SDS011;3081;50.584;7.032;2023-11-19T10:56:31;8.00;;;1.00;;
6101;SDS011;3081;50.584;7.032;2023-11-19T10:58:58;13.37;;;2.50;;
6101;SDS011;3081;50.584;7.032;2023-11-19T11:01:27;8.33;;;1.90;;
6101;SDS011;3081;50.584;7.032;2023-11-19T11:04:01;6.80;;;1.37;;
6101;SDS011;3081;50.584;7.032;2023-11-19T11:06:29;10.83;;;1.33;;
6101;SDS011;3081;50.584;7.032;2023-11-19T11:08:56;11.30;;;1.30;;
6101;SDS011;3081;50.584;7.032;2023-11-19T11:11:25;11.43;;;1.97;;
6101;SDS011;3081;50.584;7.032;2023-11-19T11:13:53;9.80;;;1.30;;
6101;SDS011;3081;50.584;7.032;2023-11-19T11:16:22;7.40;;;1.37;;
6101;SDS011;3081;50.584;7.032;2023-11-19T11:18:53;8.63;;;1.20;;
6101;SDS011;3081;50.584;7.032;2023-11-19T11:21:20;15.60;;;1.63;;
6101;SDS011;3081;50.584;7.032;2023-11-19T11:26:53;33.37;;;10.43;;
6101;SDS011;3081;50.584;7.032;2023-11-19T11:29:41;19.30;;;5.43;;
6101;SDS011;3081;50.584;7.032;2023-11-19T11:32:16;15.03;;;2.73;;
6101;SDS011;3081;50.584;7.032;2023-11-19T11:34:58;12.47;;;1.70;;
6101;SDS011;3081;50.584;7.032;2023-11-19T11:37:39;14.07;;;2.20;;
6101;SDS011;3081;50.584;7.032;2023-11-19T11:40:13;9.68;;;1.85;;
6101;SDS011;3081;50.584;7.032;2023-11-19T11:42:41;13.63;;;2.70;;
6101;SDS011;3081;50.584;7.032;2023-11-19T11:45:08;12.47;;;2.77;;
6101;SDS011;3081;50.584;7.032;2023-11-19T11:50:35;10.20;;;1.90;;
6101;SDS011;3081;50.584;7.032;2023-11-19T11:53:13;6.43;;;1.20;;
6101;SDS011;3081;50.584;7.032;2023-11-19T11:55:51;10.53;;;1.20;;
6101;SDS011;3081;50.584;7.032;2023-11-19T11:58:34;11.30;;;1.70;;
6101;SDS011;3081;50.584;7.032;2023-11-19T12:01:04;6.67;;;1.40;;
6101;SDS011;3081;50.584;7.032;2023-11-19T12:03:34;8.93;;;3.13;;
6101;SDS011;3081;50.584;7.032;2023-11-19T12:06:05;18.13;;;5.13;;
6101;SDS011;3081;50.584;7.032;2023-11-19T12:08:33;19.43;;;6.20;;
6101;SDS011;3081;50.584;7.032;2023-11-19T12:11:01;7.20;;;2.17;;
6101;SDS011;3081;50.584;7.032;2023-11-19T12:13:47;11.90;;;2.83;;
6101;SDS011;3081;50.584;7.032;2023-11-19T12:16:20;15.17;;;2.30;;
6101;SDS011;3081;50.584;7.032;2023-11-19T12:18:47;8.60;;;1.57;;
6101;SDS011;3081;50.584;7.032;2023-11-19T12:21:29;8.55;;;1.20;;
6101;SDS011;3081;50.584;7.032;2023-11-19T12:23:58;6.77;;;1.13;;
6101;SDS011;3081;50.584;7.032;2023-11-19T12:26:31;18.23;;;2.03;;
6101;SDS011;3081;50.584;7.032;2023-11-19T12:28:59;5.70;;;0.90;;
6101;SDS011;3081;50.584;7.032;2023-11-19T12:31:28;19.05;;;2.72;;
6101;SDS011;3081;50.584;7.032;2023-11-19T12:33:56;9.13;;;2.00;;
6101;SDS011;3081;50.584;7.032;2023-11-19T12:36:23;17.33;;;1.37;;
6101;SDS011;3081;50.584;7.032;2023-11-19T12:38:51;6.47;;;1.77;;
6101;SDS011;3081;50.584;7.032;2023-11-19T12:41:18;7.47;;;1.30;;
6101;SDS011;3081;50.584;7.032;2023-11-19T12:43:48;4.80;;;0.50;;
6101;SDS011;3081;50.584;7.032;2023-11-19T12:46:18;8.50;;;1.73;;
6101;SDS011;3081;50.584;7.032;2023-11-19T12:48:46;9.83;;;1.80;;
6101;SDS011;3081;50.584;7.032;2023-11-19T12:51:13;7.90;;;1.00;;
6101;SDS011;3081;50.584;7.032;2023-11-19T12:53:47;7.63;;;1.90;;
6101;SDS011;3081;50.584;7.032;2023-11-19T12:56:17;4.70;;;0.60;;
6101;SDS011;3081;50.584;7.032;2023-11-19T12:58:44;5.23;;;0.90;;
6101;SDS011;3081;50.584;7.032;2023-11-19T13:01:14;6.20;;;1.77;;
6101;SDS011;3081;50.584;7.032;2023-11-19T13:03:43;15.10;;;1.73;;
6101;SDS011;3081;50.584;7.032;2023-11-19T13:06:11;17.87;;;1.67;;
6101;SDS011;3081;50.584;7.032;2023-11-19T13:08:39;19.10;;;1.77;;
6101;SDS011;3081;50.584;7.032;2023-11-19T13:11:08;8.23;;;1.33;;
6101;SDS011;3081;50.584;7.032;2023-11-19T13:16:26;8.80;;;1.30;;
6101;SDS011;3081;50.584;7.032;2023-11-19T13:18:54;5.07;;;0.80;;
6101;SDS011;3081;50.584;7.032;2023-11-19T13:21:22;11.93;;;2.40;;
6101;SDS011;3081;50.584;7.032;2023-11-19T13:23:49;9.50;;;1.40;;
6101;SDS011;3081;50.584;7.032;2023-11-19T13:26:16;5.53;;;0.70;;
6101;SDS011;3081;50.584;7.032;2023-11-19T13:28:43;22.53;;;7.10;;
6101;SDS011;3081;50.584;7.032;2023-11-19T13:31:12;11.97;;;4.03;;
6101;SDS011;3081;50.584;7.032;2023-11-19T13:33:40;6.70;;;1.00;;
6101;SDS011;3081;50.584;7.032;2023-11-19T13:36:07;11.10;;;1.73;;
6101;SDS011;3081;50.584;7.032;2023-11-19T13:38:35;10.65;;;1.80;;
6101;SDS011;3081;50.584;7.032;2023-11-19T13:41:02;12.10;;;2.38;;
6101;SDS011;3081;50.584;7.032;2023-11-19T13:43:30;8.70;;;1.27;;
6101;SDS011;3081;50.584;7.032;2023-11-19T13:45:57;18.57;;;2.80;;
6101;SDS011;3081;50.584;7.032;2023-11-19T13:48:25;10.63;;;2.10;;
6101;SDS011;3081;50.584;7.032;2023-11-19T13:50:54;11.63;;;2.97;;
6101;SDS011;3081;50.584;7.032;2023-11-19T13:53:21;9.97;;;2.23;;
6101;SDS011;3081;50.584;7.032;2023-11-19T13:55:48;14.07;;;2.30;;
6101;SDS011;3081;50.584;7.032;2023-11-19T13:58:15;13.83;;;2.80;;
6101;SDS011;3081;50.584;7.032;2023-11-19T14:00:42;22.13;;;2.20;;
6101;SDS011;3081;50.584;7.032;2023-11-19T14:03:09;12.13;;;1.80;;
6101;SDS011;3081;50.584;7.032;2023-11-19T14:05:38;14.63;;;1.90;;
6101;SDS011;3081;50.584;7.032;2023-11-19T14:08:06;15.00;;;2.60;;
6101;SDS011;3081;50.584;7.032;2023-11-19T14:10:36;10.70;;;1.80;;
6101;SDS011;3081;50.584;7.032;2023-11-19T14:13:05;14.03;;;2.47;;
6101;SDS011;3081;50.584;7.032;2023-11-19T14:15:32;11.20;;;2.80;;
6101;SDS011;3081;50.584;7.032;2023-11-19T14:18:00;16.77;;;2.50;;
6101;SDS011;3081;50.584;7.032;2023-11-19T14:20:27;8.13;;;1.33;;
6101;SDS011;3081;50.584;7.032;2023-11-19T14:22:56;6.83;;;1.50;;
6101;SDS011;3081;50.584;7.032;2023-11-19T14:25:23;9.47;;;1.50;;
6101;SDS011;3081;50.584;7.032;2023-11-19T14:27:50;14.10;;;1.90;;
6101;SDS011;3081;50.584;7.032;2023-11-19T14:30:17;19.93;;;1.90;;
6101;SDS011;3081;50.584;7.032;2023-11-19T14:32:44;7.90;;;1.17;;
6101;SDS011;3081;50.584;7.032;2023-11-19T14:35:11;7.03;;;1.30;;
6101;SDS011;3081;50.584;7.032;2023-11-19T14:37:38;6.20;;;1.10;;
6101;SDS011;3081;50.584;7.032;2023-11-19T14:40:07;8.53;;;1.57;;
6101;SDS011;3081;50.584;7.032;2023-11-19T14:42:36;11.73;;;1.63;;
6101;SDS011;3081;50.584;7.032;2023-11-19T14:45:04;7.57;;;0.90;;
6101;SDS011;3081;50.584;7.032;2023-11-19T14:47:32;4.10;;;0.60;;
6101;SDS011;3081;50.584;7.032;2023-11-19T14:49:59;4.87;;;1.27;;
6101;SDS011;3081;50.584;7.032;2023-11-19T14:52:26;4.73;;;0.77;;
6101;SDS011;3081;50.584;7.032;2023-11-19T14:54:52;6.13;;;0.80;;
6101;SDS011;3081;50.584;7.032;2023-11-19T14:57:23;6.00;;;1.17;;
6101;SDS011;3081;50.584;7.032;2023-11-19T14:59:49;5.40;;;1.30;;
6101;SDS011;3081;50.584;7.032;2023-11-19T15:02:17;5.17;;;0.93;;
6101;SDS011;3081;50.584;7.032;2023-11-19T15:04:44;6.70;;;1.33;;
6101;SDS011;3081;50.584;7.032;2023-11-19T15:07:11;6.73;;;1.03;;
6101;SDS011;3081;50.584;7.032;2023-11-19T15:09:38;13.13;;;5.07;;
6101;SDS011;3081;50.584;7.032;2023-11-19T15:12:05;17.77;;;6.27;;
6101;SDS011;3081;50.584;7.032;2023-11-19T15:14:34;11.03;;;3.27;;
6101;SDS011;3081;50.584;7.032;2023-11-19T15:17:00;9.23;;;2.80;;
6101;SDS011;3081;50.584;7.032;2023-11-19T15:19:28;12.60;;;5.00;;
6101;SDS011;3081;50.584;7.032;2023-11-19T15:21:54;15.40;;;5.80;;
6101;SDS011;3081;50.584;7.032;2023-11-19T15:24:22;8.20;;;1.77;;
6101;SDS011;3081;50.584;7.032;2023-11-19T15:26:50;18.10;;;6.77;;
6101;SDS011;3081;50.584;7.032;2023-11-19T15:29:17;21.53;;;5.20;;
6101;SDS011;3081;50.584;7.032;2023-11-19T15:31:45;6.90;;;1.87;;